createdAt,value
2023-05-15T00:01:08.324Z,35.19
2023-05-15T00:03:35.895Z,36.28
2023-05-15T00:06:03.164Z,36.43
2023-05-15T00:08:30.137Z,36.07
2023-05-15T00:11:01.668Z,35.72
2023-05-15T00:13:29.281Z,35.54
2023-05-15T00:15:56.770Z,35.04
2023-05-15T00:18:24.047Z,35.30
2023-05-15T00:20:51.091Z,35.25
2023-05-15T00:23:18.247Z,35.01
2023-05-15T00:25:45.273Z,35.22
2023-05-15T00:28:12.624Z,35.74
2023-05-15T00:30:39.709Z,35.58
2023-05-15T00:33:07.395Z,35.51
2023-05-15T00:35:34.420Z,35.32
2023-05-15T00:38:01.470Z,35.70
2023-05-15T00:40:29.305Z,35.94
2023-05-15T00:42:56.395Z,35.26
2023-05-15T00:45:24.082Z,35.73
2023-05-15T00:47:51.455Z,36.13
2023-05-15T00:50:18.620Z,36.25
2023-05-15T00:52:46.777Z,36.38
2023-05-15T00:55:13.957Z,36.20
2023-05-15T00:57:42.580Z,36.12
2023-05-15T01:00:10.550Z,36.34
2023-05-15T01:02:37.968Z,36.41
2023-05-15T01:05:09.286Z,36.82
2023-05-15T01:07:41.535Z,36.74
2023-05-15T01:10:08.944Z,36.23
2023-05-15T01:12:36.027Z,36.60
2023-05-15T01:15:03.278Z,36.91
2023-05-15T01:17:30.700Z,37.21
2023-05-15T01:19:58.293Z,37.14
2023-05-15T01:23:04.366Z,37.65
2023-05-15T01:25:54.118Z,37.31
2023-05-15T01:28:24.280Z,37.33
2023-05-15T01:30:51.424Z,37.26
2023-05-15T01:33:21.149Z,36.65
2023-05-15T01:35:59.483Z,36.78
2023-05-15T01:38:55.989Z,36.82
2023-05-15T01:41:23.300Z,37.66
2023-05-15T01:43:55.769Z,38.05
2023-05-15T01:46:23.485Z,37.83
2023-05-15T01:48:51.199Z,37.16
2023-05-15T01:51:19.296Z,37.24
2023-05-15T01:53:46.371Z,37.08
2023-05-15T01:56:14.329Z,37.84
2023-05-15T01:58:41.476Z,37.87
2023-05-15T02:01:08.645Z,37.89
2023-05-15T02:03:36.585Z,37.52
2023-05-15T02:06:03.908Z,38.33
2023-05-15T02:08:31.285Z,38.62
2023-05-15T02:10:58.688Z,38.81
2023-05-15T02:13:25.875Z,38.29
2023-05-15T02:15:53.291Z,38.59
2023-05-15T02:18:20.799Z,38.69
2023-05-15T02:20:47.865Z,39.29
2023-05-15T02:23:15.796Z,39.12
2023-05-15T02:25:54.710Z,38.85
2023-05-15T02:28:31.029Z,39.10
2023-05-15T02:31:04.041Z,38.61
2023-05-15T02:33:51.936Z,38.73
2023-05-15T02:36:21.319Z,38.71
2023-05-15T02:38:53.809Z,38.97
2023-05-15T02:41:22.066Z,38.82
2023-05-15T02:43:50.600Z,38.64
2023-05-15T02:46:18.792Z,38.71
2023-05-15T02:48:46.424Z,38.89
2023-05-15T02:51:13.520Z,38.71
2023-05-15T02:53:41.372Z,38.84
2023-05-15T02:56:08.910Z,38.89
2023-05-15T02:58:35.987Z,38.96
2023-05-15T03:01:04.770Z,38.92
2023-05-15T03:03:32.045Z,39.62
2023-05-15T03:06:01.143Z,39.38
2023-05-15T03:08:28.645Z,39.50
2023-05-15T03:10:56.083Z,39.31
2023-05-15T03:13:23.421Z,39.24
2023-05-15T03:15:50.647Z,39.45
2023-05-15T03:18:19.191Z,39.35
2023-05-15T03:20:47.716Z,39.38
2023-05-15T03:23:14.790Z,39.80
2023-05-15T03:25:42.148Z,39.89
2023-05-15T03:28:09.220Z,39.52
2023-05-15T03:30:36.279Z,39.59
2023-05-15T03:33:07.057Z,39.52
2023-05-15T03:35:34.194Z,39.10
2023-05-15T03:38:02.435Z,38.78
2023-05-15T03:40:29.605Z,38.87
2023-05-15T03:42:58.478Z,39.20
2023-05-15T03:45:26.120Z,39.40
2023-05-15T03:47:53.362Z,39.33
2023-05-15T03:50:20.730Z,39.58
2023-05-15T03:52:47.931Z,39.58
2023-05-15T03:55:15.016Z,39.59
2023-05-15T03:57:41.989Z,38.37
2023-05-15T04:00:11.193Z,37.62
2023-05-15T04:02:41.492Z,37.86
2023-05-15T04:05:09.262Z,38.01
2023-05-15T04:07:36.698Z,38.05
2023-05-15T04:10:04.325Z,38.23
2023-05-15T04:12:32.371Z,38.47
2023-05-15T04:15:00.553Z,39.18
2023-05-15T04:17:27.695Z,39.26
2023-05-15T04:19:54.731Z,38.53
2023-05-15T04:22:21.732Z,37.57
2023-05-15T04:24:48.853Z,37.82
2023-05-15T04:27:16.316Z,38.29
2023-05-15T04:29:43.367Z,39.09
2023-05-15T04:32:10.759Z,38.27
2023-05-15T04:34:37.916Z,38.19
2023-05-15T04:37:05.066Z,38.09
2023-05-15T04:39:32.657Z,37.94
2023-05-15T04:41:59.736Z,37.88
2023-05-15T04:44:26.962Z,37.32
2023-05-15T04:46:54.087Z,36.58
2023-05-15T04:49:21.161Z,36.81
2023-05-15T04:51:48.681Z,37.00
2023-05-15T04:54:15.922Z,37.23
2023-05-15T04:56:43.000Z,36.64
2023-05-15T04:59:11.165Z,36.86
2023-05-15T05:01:38.413Z,37.06
2023-05-15T05:04:05.991Z,37.10
2023-05-15T05:06:33.147Z,37.20
2023-05-15T05:09:00.199Z,36.86
2023-05-15T05:11:27.277Z,37.31
2023-05-15T05:13:54.920Z,37.15
2023-05-15T05:16:22.785Z,37.22
2023-05-15T05:18:50.800Z,36.78
2023-05-15T05:21:17.911Z,36.32
2023-05-15T05:23:45.038Z,35.92
2023-05-15T05:26:12.088Z,35.80
2023-05-15T05:28:39.518Z,35.34
2023-05-15T05:31:07.396Z,35.53
2023-05-15T05:33:34.828Z,35.83
2023-05-15T05:36:01.919Z,35.98
2023-05-15T05:38:29.046Z,36.09
2023-05-15T05:40:56.243Z,36.08
2023-05-15T05:43:23.300Z,36.07
2023-05-15T05:45:50.582Z,36.21
2023-05-15T05:48:17.968Z,36.06
2023-05-15T05:50:45.112Z,35.59
2023-05-15T05:53:12.551Z,35.52
2023-05-15T05:55:39.567Z,34.80
2023-05-15T05:58:11.793Z,34.46
2023-05-15T06:00:45.419Z,34.33
2023-05-15T06:03:12.491Z,34.42
2023-05-15T06:05:39.697Z,33.99
2023-05-15T06:08:07.441Z,33.41
2023-05-15T06:10:34.746Z,33.40
2023-05-15T06:13:01.813Z,32.98
2023-05-15T06:15:28.928Z,32.95
2023-05-15T06:17:56.752Z,33.11
2023-05-15T06:20:24.070Z,33.19
2023-05-15T06:22:51.455Z,32.97
2023-05-15T06:25:19.004Z,32.14
2023-05-15T06:27:46.276Z,32.58
2023-05-15T06:30:14.034Z,32.30
2023-05-15T06:32:42.051Z,31.78
2023-05-15T06:35:10.161Z,31.61
2023-05-15T06:37:37.443Z,31.49
2023-05-15T06:40:05.766Z,31.33
2023-05-15T06:42:33.385Z,30.31
2023-05-15T06:45:00.947Z,30.48
2023-05-15T06:47:28.156Z,30.39
2023-05-15T06:49:55.785Z,30.24
2023-05-15T06:52:23.012Z,29.77
2023-05-15T06:54:50.194Z,29.99
2023-05-15T06:57:17.864Z,30.20
2023-05-15T06:59:45.143Z,29.37
2023-05-15T07:02:12.368Z,29.75
2023-05-15T07:04:39.517Z,28.67
2023-05-15T07:07:07.698Z,28.60
2023-05-15T07:09:35.645Z,28.52
2023-05-15T07:12:03.809Z,27.43
2023-05-15T07:14:31.333Z,28.59
2023-05-15T07:16:58.471Z,28.64
2023-05-15T07:19:25.895Z,27.76
2023-05-15T07:21:53.246Z,28.30
2023-05-15T07:24:20.632Z,28.02
2023-05-15T07:26:58.031Z,27.94
2023-05-15T07:29:26.351Z,28.11
2023-05-15T07:31:53.912Z,27.51
2023-05-15T07:34:21.525Z,27.55
2023-05-15T07:36:48.652Z,27.51
2023-05-15T07:39:16.146Z,27.01
2023-05-15T07:41:43.234Z,26.93
2023-05-15T07:44:10.877Z,26.99
2023-05-15T07:46:39.458Z,26.97
2023-05-15T07:49:06.972Z,26.50
2023-05-15T07:51:34.111Z,26.89
2023-05-15T07:54:01.189Z,26.75
2023-05-15T07:56:28.812Z,26.05
2023-05-15T07:58:57.060Z,26.02
2023-05-15T08:01:24.590Z,25.93
2023-05-15T08:03:51.821Z,25.98
2023-05-15T08:06:19.087Z,25.79
2023-05-15T08:08:46.320Z,25.92
2023-05-15T08:11:13.448Z,25.44
2023-05-15T08:13:40.536Z,24.97
2023-05-15T08:16:07.673Z,24.45
2023-05-15T08:18:34.769Z,25.01
2023-05-15T08:21:02.995Z,24.28
2023-05-15T08:23:31.736Z,23.85
2023-05-15T08:25:59.460Z,24.63
2023-05-15T08:28:26.854Z,24.64
2023-05-15T08:30:53.943Z,24.37
2023-05-15T08:33:21.324Z,25.05
2023-05-15T08:35:48.467Z,24.46
2023-05-15T08:38:15.547Z,24.55
2023-05-15T08:40:42.669Z,23.54
2023-05-15T08:43:15.252Z,24.02
2023-05-15T08:45:42.915Z,23.86
2023-05-15T08:48:11.654Z,23.91
2023-05-15T08:50:39.352Z,23.99
2023-05-15T08:53:06.475Z,23.94
2023-05-15T08:55:33.650Z,23.55
2023-05-15T08:58:00.912Z,22.86
2023-05-15T09:00:28.233Z,23.25
2023-05-15T09:02:55.363Z,22.93
2023-05-15T09:05:22.678Z,22.68
2023-05-15T09:07:50.536Z,22.64
2023-05-15T09:10:17.918Z,22.27
2023-05-15T09:15:34.749Z,23.17
2023-05-15T09:18:01.937Z,22.32
2023-05-15T09:20:33.744Z,22.89
2023-05-15T09:23:02.771Z,22.63
2023-05-15T09:25:43.027Z,22.47
2023-05-15T09:28:11.278Z,21.91
2023-05-15T09:30:39.557Z,22.07
2023-05-15T09:33:06.608Z,22.00
2023-05-15T09:35:35.697Z,22.52
2023-05-15T09:38:08.063Z,22.39
2023-05-15T09:40:35.157Z,22.15
2023-05-15T09:43:02.766Z,22.18
2023-05-15T09:45:30.475Z,22.25
2023-05-15T09:48:00.152Z,21.85
2023-05-15T09:50:37.775Z,21.62
2023-05-15T09:53:05.643Z,21.59
2023-05-15T09:55:33.963Z,21.98
2023-05-15T09:58:06.588Z,22.36
2023-05-15T10:00:34.482Z,22.30
2023-05-15T10:03:03.387Z,22.80
2023-05-15T10:05:42.540Z,23.06
2023-05-15T10:08:10.732Z,22.31
2023-05-15T10:10:37.896Z,22.35
2023-05-15T10:13:06.168Z,22.06
2023-05-15T10:15:33.449Z,22.00
2023-05-15T10:18:01.054Z,22.38
2023-05-15T10:20:28.280Z,22.04
2023-05-15T10:22:56.523Z,21.21
2023-05-15T10:25:35.623Z,21.83
2023-05-15T10:28:03.530Z,21.96
2023-05-15T10:30:31.682Z,22.06
2023-05-15T10:32:58.747Z,21.54
2023-05-15T10:35:26.055Z,21.40
2023-05-15T10:37:53.469Z,20.79
2023-05-15T10:40:20.807Z,21.29
2023-05-15T10:42:47.952Z,21.27
2023-05-15T10:45:15.133Z,21.05
2023-05-15T10:47:43.318Z,20.92
2023-05-15T10:50:11.718Z,21.34
2023-05-15T10:52:39.365Z,21.55
2023-05-15T10:55:07.780Z,21.62
2023-05-15T10:57:35.108Z,21.40
2023-05-15T11:00:02.601Z,21.67
2023-05-15T11:02:31.655Z,21.65
2023-05-15T11:05:03.787Z,21.58
2023-05-15T11:07:31.063Z,20.84
2023-05-15T11:09:58.428Z,20.83
2023-05-15T11:12:25.784Z,20.89
2023-05-15T11:14:55.832Z,21.37
2023-05-15T11:17:23.565Z,21.62
2023-05-15T11:19:51.010Z,21.49
2023-05-15T11:22:27.881Z,21.22
2023-05-15T11:25:16.831Z,20.95
2023-05-15T11:27:47.353Z,21.18
2023-05-15T11:30:20.903Z,21.39
2023-05-15T11:32:47.990Z,21.24
2023-05-15T11:35:46.335Z,21.39
2023-05-15T11:38:24.841Z,21.26
2023-05-15T11:41:04.306Z,20.37
2023-05-15T11:43:37.499Z,20.76
2023-05-15T11:46:08.746Z,21.02
2023-05-15T11:48:40.559Z,20.44
2023-05-15T11:51:21.792Z,20.38
2023-05-15T11:53:50.115Z,20.71
2023-05-15T11:56:21.829Z,20.43
2023-05-15T11:58:50.167Z,20.15
2023-05-15T12:01:17.360Z,20.00
2023-05-15T12:03:46.822Z,20.32
2023-05-15T12:06:14.191Z,20.50
2023-05-15T12:08:42.372Z,20.51
2023-05-15T12:11:09.681Z,20.47
2023-05-15T12:13:36.722Z,20.61
2023-05-15T12:16:04.380Z,19.76
2023-05-15T12:18:32.682Z,19.65
2023-05-15T12:20:59.991Z,19.19
2023-05-15T12:23:28.660Z,19.16
2023-05-15T12:26:00.830Z,19.03
2023-05-15T12:28:28.923Z,19.22
2023-05-15T12:30:56.144Z,19.47
2023-05-15T12:33:23.838Z,19.04
2023-05-15T12:35:54.934Z,19.33
2023-05-15T12:38:22.982Z,19.23
2023-05-15T12:40:53.750Z,19.33
2023-05-15T12:43:23.393Z,19.19
2023-05-15T12:45:52.703Z,19.30
2023-05-15T12:48:20.370Z,19.39
2023-05-15T12:50:47.462Z,19.69
2023-05-15T12:53:16.050Z,20.23
2023-05-15T12:55:44.919Z,20.14
2023-05-15T12:58:12.688Z,20.03
2023-05-15T13:00:42.013Z,19.85
2023-05-15T13:03:10.793Z,20.11
2023-05-15T13:05:38.412Z,20.39
2023-05-15T13:08:07.498Z,20.91
2023-05-15T13:10:36.788Z,20.73
2023-05-15T13:13:04.226Z,20.33
2023-05-15T13:15:38.965Z,20.17
2023-05-15T13:18:10.552Z,20.47
2023-05-15T13:20:42.124Z,20.03
2023-05-15T13:23:10.957Z,19.64
2023-05-15T13:25:38.060Z,19.17
2023-05-15T13:28:06.372Z,18.91
2023-05-15T13:30:34.474Z,18.97
2023-05-15T13:33:02.156Z,18.82
2023-05-15T13:35:29.451Z,18.40
2023-05-15T13:37:57.062Z,18.28
2023-05-15T13:40:24.187Z,18.22
2023-05-15T13:42:51.476Z,17.70
2023-05-15T13:45:18.780Z,18.00
2023-05-15T13:47:46.045Z,17.42
2023-05-15T13:50:14.188Z,18.29
2023-05-15T13:52:41.842Z,17.84
2023-05-15T13:55:12.108Z,17.41
2023-05-15T13:57:39.711Z,17.67
2023-05-15T14:00:10.171Z,17.80
2023-05-15T14:02:37.298Z,17.74
2023-05-15T14:05:05.399Z,18.55
2023-05-15T14:07:32.599Z,18.75
2023-05-15T14:09:59.629Z,18.34
2023-05-15T14:12:26.855Z,18.65
2023-05-15T14:14:56.182Z,18.59
2023-05-15T14:17:23.721Z,18.17
2023-05-15T14:19:51.431Z,18.61
2023-05-15T14:22:18.564Z,18.49
2023-05-15T14:24:45.762Z,18.71
2023-05-15T14:27:13.324Z,19.09
2023-05-15T14:29:40.426Z,19.38
2023-05-15T14:32:09.069Z,19.40
2023-05-15T14:34:36.154Z,19.05
2023-05-15T14:37:03.320Z,19.65
2023-05-15T14:39:30.445Z,20.03
2023-05-15T14:41:57.517Z,19.98
2023-05-15T14:44:24.618Z,19.69
2023-05-15T14:47:08.522Z,19.45
2023-05-15T14:49:36.692Z,19.72
2023-05-15T14:52:05.170Z,19.72
2023-05-15T14:54:32.399Z,19.93
2023-05-15T14:56:59.677Z,20.05
2023-05-15T14:59:27.833Z,20.37
2023-05-15T15:01:55.213Z,19.99
2023-05-15T15:04:22.392Z,19.76
2023-05-15T15:06:49.573Z,19.97
2023-05-15T15:09:18.258Z,19.66
2023-05-15T15:11:47.379Z,19.77
2023-05-15T15:14:14.449Z,19.69
2023-05-15T15:16:41.908Z,19.80
2023-05-15T15:19:09.408Z,20.05
2023-05-15T15:21:37.722Z,20.12
2023-05-15T15:24:05.191Z,19.62
2023-05-15T15:26:32.391Z,19.49
2023-05-15T15:29:01.148Z,19.03
2023-05-15T15:31:32.225Z,19.23
2023-05-15T15:33:59.788Z,19.18
2023-05-15T15:36:26.965Z,18.80
2023-05-15T15:38:54.725Z,19.02
2023-05-15T15:41:21.882Z,19.48
2023-05-15T15:43:49.091Z,19.47
2023-05-15T15:46:16.265Z,19.05
2023-05-15T15:48:43.407Z,19.43
2023-05-15T15:51:10.797Z,20.01
2023-05-15T15:53:39.391Z,19.57
2023-05-15T15:56:07.654Z,20.06
2023-05-15T15:58:34.677Z,20.01
2023-05-15T16:01:02.928Z,20.18
2023-05-15T16:03:31.119Z,20.45
2023-05-15T16:05:59.959Z,20.17
2023-05-15T16:08:27.877Z,20.41
2023-05-15T16:10:55.270Z,20.37
2023-05-15T16:13:22.260Z,20.49
2023-05-15T16:15:50.001Z,20.79
2023-05-15T16:18:17.028Z,20.81
2023-05-15T16:20:44.128Z,20.99
2023-05-15T16:23:14.594Z,20.74
2023-05-15T16:25:44.184Z,20.76
2023-05-15T16:28:12.258Z,20.96
2023-05-15T16:30:48.950Z,21.06
2023-05-15T16:33:18.024Z,20.98
2023-05-15T16:35:46.123Z,21.20
2023-05-15T16:38:13.723Z,21.16
2023-05-15T16:40:40.836Z,21.55
2023-05-15T16:43:08.393Z,21.70
2023-05-15T16:45:35.692Z,21.86
2023-05-15T16:48:02.869Z,22.09
2023-05-15T16:50:31.452Z,22.16
2023-05-15T16:52:59.118Z,22.22
2023-05-15T16:55:26.284Z,22.12
2023-05-15T16:57:53.719Z,22.72
2023-05-15T17:00:21.626Z,22.68
2023-05-15T17:02:49.445Z,22.95
2023-05-15T17:05:16.880Z,22.91
2023-05-15T17:07:44.233Z,22.91
2023-05-15T17:10:12.053Z,23.15
2023-05-15T17:12:39.357Z,23.11
2023-05-15T17:15:07.511Z,23.22
2023-05-15T17:17:34.855Z,23.25
2023-05-15T17:20:03.154Z,23.50
2023-05-15T17:22:30.629Z,23.60
2023-05-15T17:24:57.700Z,23.60
2023-05-15T17:27:24.863Z,23.85
2023-05-15T17:29:53.279Z,23.83
2023-05-15T17:32:20.587Z,24.27
2023-05-15T17:34:47.975Z,24.26
2023-05-15T17:37:15.108Z,24.40
2023-05-15T17:39:42.792Z,24.37
2023-05-15T17:42:10.436Z,24.72
2023-05-15T17:44:37.455Z,24.88
2023-05-15T17:47:05.094Z,24.81
2023-05-15T17:49:34.427Z,25.07
2023-05-15T17:52:01.677Z,25.29
2023-05-15T17:54:28.770Z,25.72
2023-05-15T17:56:55.971Z,25.41
2023-05-15T17:59:23.274Z,25.49
2023-05-15T18:01:50.497Z,25.31
2023-05-15T18:04:17.933Z,25.14
2023-05-15T18:06:45.337Z,25.34
2023-05-15T18:09:12.509Z,25.51
2023-05-15T18:11:39.663Z,25.88
2023-05-15T18:14:06.831Z,25.65
2023-05-15T18:16:34.094Z,25.78
2023-05-15T18:19:01.736Z,25.72
2023-05-15T18:21:28.827Z,26.02
2023-05-15T18:23:56.139Z,25.68
2023-05-15T18:26:23.799Z,25.74
2023-05-15T18:28:50.958Z,25.75
2023-05-15T18:31:18.095Z,25.57
2023-05-15T18:33:45.572Z,25.96
2023-05-15T18:36:12.672Z,26.03
2023-05-15T18:38:39.786Z,26.00
2023-05-15T18:41:06.926Z,25.95
2023-05-15T18:43:34.054Z,26.05
2023-05-15T18:46:01.277Z,26.36
2023-05-15T18:48:28.435Z,26.38
2023-05-15T18:50:56.018Z,26.45
2023-05-15T18:53:23.266Z,26.42
2023-05-15T18:55:50.532Z,26.66
2023-05-15T18:58:17.731Z,26.83
2023-05-15T19:00:44.978Z,26.96
2023-05-15T19:03:12.298Z,26.94
2023-05-15T19:05:39.672Z,26.84
2023-05-15T19:08:07.332Z,27.03
2023-05-15T19:10:34.473Z,27.15
2023-05-15T19:13:01.710Z,27.38
2023-05-15T19:15:28.873Z,27.20
2023-05-15T19:17:56.303Z,27.15
2023-05-15T19:20:23.596Z,27.33
2023-05-15T19:22:50.817Z,27.48
2023-05-15T19:25:17.991Z,27.45
2023-05-15T19:27:45.109Z,27.65
2023-05-15T19:30:12.624Z,27.53
2023-05-15T19:32:39.884Z,27.38
2023-05-15T19:35:07.438Z,27.77
2023-05-15T19:37:34.728Z,27.68
2023-05-15T19:40:02.118Z,27.82
2023-05-15T19:42:29.236Z,27.73
2023-05-15T19:44:56.545Z,27.90
2023-05-15T19:47:23.693Z,28.19
2023-05-15T19:49:50.852Z,28.00
2023-05-15T19:52:19.364Z,27.98
2023-05-15T19:54:46.943Z,28.23
2023-05-15T19:57:13.991Z,28.27
2023-05-15T19:59:41.103Z,28.11
2023-05-15T20:02:10.748Z,28.25
2023-05-15T20:04:37.938Z,28.10
2023-05-15T20:07:05.275Z,28.29
2023-05-15T20:09:32.456Z,28.27
2023-05-15T20:11:59.552Z,28.26
2023-05-15T20:14:26.588Z,28.31
2023-05-15T20:16:53.921Z,28.39
2023-05-15T20:19:24.971Z,28.33
2023-05-15T20:21:52.353Z,28.44
2023-05-15T20:24:19.526Z,28.78
2023-05-15T20:26:46.687Z,28.45
2023-05-15T20:29:13.824Z,28.57
2023-05-15T20:31:41.180Z,28.66
2023-05-15T20:34:08.614Z,28.64
2023-05-15T20:36:38.991Z,28.71
2023-05-15T20:39:07.600Z,28.91
2023-05-15T20:41:34.976Z,28.72
2023-05-15T20:44:02.248Z,28.33
2023-05-15T20:46:30.126Z,28.86
2023-05-15T20:48:57.892Z,29.03
2023-05-15T20:51:25.266Z,28.82
2023-05-15T20:53:52.439Z,29.26
2023-05-15T20:56:19.854Z,29.36
2023-05-15T20:58:46.875Z,29.34
2023-05-15T21:01:13.994Z,29.29
2023-05-15T21:03:41.504Z,29.58
2023-05-15T21:06:08.975Z,29.44
2023-05-15T21:08:36.565Z,29.59
2023-05-15T21:11:04.096Z,29.73
2023-05-15T21:13:31.121Z,29.72
2023-05-15T21:15:58.282Z,29.88
2023-05-15T21:18:25.435Z,30.05
2023-05-15T21:20:53.142Z,30.11
2023-05-15T21:23:21.460Z,30.33
2023-05-15T21:25:48.483Z,30.44
2023-05-15T21:28:15.987Z,30.81
2023-05-15T21:32:16.351Z,32.42
2023-05-15T21:34:43.395Z,30.86
2023-05-15T21:37:10.650Z,30.87
2023-05-15T21:39:37.786Z,30.98
2023-05-15T21:42:05.501Z,30.90
2023-05-15T21:44:32.842Z,31.13
2023-05-15T21:46:59.899Z,30.90
2023-05-15T21:49:26.976Z,31.38
2023-05-15T21:51:54.080Z,31.48
2023-05-15T21:54:21.406Z,31.69
2023-05-15T21:56:48.612Z,31.66
2023-05-15T21:59:15.721Z,31.65
2023-05-15T22:01:43.008Z,31.83
2023-05-15T22:04:10.377Z,31.96
2023-05-15T22:06:37.526Z,32.19
2023-05-15T22:09:04.988Z,32.05
2023-05-15T22:11:32.037Z,32.37
2023-05-15T22:13:59.671Z,32.35
2023-05-15T22:16:26.930Z,32.67
2023-05-15T22:18:54.955Z,33.17
2023-05-15T22:21:22.072Z,32.86
2023-05-15T22:23:49.167Z,32.92
2023-05-15T22:26:16.397Z,32.98
2023-05-15T22:28:44.123Z,33.00
2023-05-15T22:31:11.237Z,33.71
2023-05-15T22:33:38.398Z,33.16
2023-05-15T22:36:06.225Z,33.40
2023-05-15T22:38:33.123Z,33.11
2023-05-15T22:41:00.339Z,33.25
2023-05-15T22:43:27.456Z,33.34
2023-05-15T22:45:54.658Z,33.41
2023-05-15T22:48:23.246Z,33.65
2023-05-15T22:50:50.336Z,34.04
2023-05-15T22:53:17.463Z,33.59
2023-05-15T22:55:45.021Z,33.33
2023-05-15T22:58:12.693Z,33.82
2023-05-15T23:00:39.818Z,33.60
2023-05-15T23:03:07.209Z,33.78
2023-05-15T23:05:34.402Z,34.16
2023-05-15T23:08:01.421Z,34.00
2023-05-15T23:10:28.895Z,34.07
2023-05-15T23:12:56.185Z,34.33
2023-05-15T23:15:23.216Z,34.30
2023-05-15T23:17:50.437Z,34.47
2023-05-15T23:20:18.268Z,34.44
2023-05-15T23:22:45.400Z,34.37
2023-05-15T23:25:12.406Z,34.63
2023-05-15T23:27:39.383Z,34.70
2023-05-15T23:30:07.209Z,34.86
2023-05-15T23:32:34.270Z,34.82
2023-05-15T23:35:01.426Z,35.19
2023-05-15T23:37:28.633Z,35.23
2023-05-15T23:39:55.713Z,35.08
2023-05-15T23:42:23.226Z,35.30
2023-05-15T23:44:50.448Z,35.53
2023-05-15T23:47:17.758Z,35.39
2023-05-15T23:49:44.857Z,35.57
2023-05-15T23:52:12.116Z,35.61
2023-05-15T23:54:40.118Z,35.50
2023-05-15T23:57:07.152Z,35.54
2023-05-15T23:59:34.295Z,35.43
